Aérodrome :
LOGIN :

S'inscrire | Disclaimer

   EN    FR    IT 

 










Légende :    VFR   VFR Marginal   IFR   IFR Intensif   IFR Très Intensif
Visi : 
Plafond : 
>= 8 km
>= 3000ft
5 à 8 km
1000 à 3000 ft
1500m à 5 km
500 à 1000 ft
800 à 1500m
200 à 500 ft
< 800m
< 200 ft
Symboles :   Orages  Brouillard  Fortes neiges  Fortes précipitations  Vent > 20 kt
SIGMETs :   Divers  Orages  Givrage  Turbulence  Onde Orograph.  Cendres Volcan.







- Altitude de l'aérodrome : 137 ft


LIPS - Istrana AFB Treviso

DERNIER METAR :
  • 181755Z 05003KT 9999 FEW050 BKN100 06/03 Q1021 RMK BKN VIS MIN 9999 WIND THR26 06003KT WIND THR08 04003KT BLU

METARs EXPIRÉS :
  • 181655Z 08005KT 9999 FEW025 BKN090 07/03 Q1021 RMK BKN VIS MIN 9999 WIND THR26 08004KT WIND THR08 09005KT BLU
  • 181555Z 09005KT 9999 FEW025 BKN080 08/02 Q1020 RMK OVC VIS MIN 9999 WIND THR26 08007KT WIND THR08 08006KT BLU
  • 181455Z 10010KT 9999 FEW015 SCT050 BKN080 08/02 Q1020 RMK OVC VIS MIN 9999 WIND THR26 09009KT WIND THR08 09008KT BLU

TAF TAF LIPS
Valide du 18 à 18h jusqu'au 19 à 03h UTC


181700Z 1818/1903 07010KT 8000 SCT015 BKN050
TEMPO 1900/1903 5000 BR
Pas de NOTAMs connus pour ce terrain.



MET'MAP, la Météo Aéronautique d'un coup d'oeil ! - Copyright ORBIFLY Décembre 2007 - Disclaimer

ORBIFLY MET'MAP TEAM :

Programmation & Développement : Alexandra Zaïnal
Conception & Développement : Baudouin d'Aumeries
Co-Programmation & Développement : Marc-Olivier Méhu
Soutien technique & logistique : Manuel Goepfert

Contact : metmap@orbifly.com




SOURCES & CREDITS :

   NOAA